Time,TemperatureF,DewpointF,PressureIn,WindDirection,WindDirectionDegrees,WindSpeedMPH,WindSpeedGustMPH,Humidity,HourlyPrecipIn,Conditions,Clouds,dailyrainin,SolarRadiationWatts/m^2,SoftwareType,DateUTC
2013-04-27 00:11:00,51.4,46.0,30.22,SSE,163,11.0,-999.0,83,-99.99,,,0.00,0,weatherlink.com 1.10,2013-04-27 05:11:00,
2013-04-27 00:26:00,51.3,46.0,30.21,South,169,10.0,-999.0,83,-99.99,,,0.00,0,weatherlink.com 1.10,2013-04-27 05:26:00,
2013-04-27 00:41:00,50.2,46.0,30.21,SSE,168,9.0,-999.0,84,-99.99,,,0.00,0,weatherlink.com 1.10,2013-04-27 05:41:00,
2013-04-27 00:56:00,49.4,45.0,30.22,South,173,7.0,-999.0,85,-99.99,,,0.00,0,weatherlink.com 1.10,2013-04-27 05:56:00,
2013-04-27 01:11:00,48.8,45.0,30.21,South,178,9.0,-999.0,87,-99.99,,,0.00,0,weatherlink.com 1.10,2013-04-27 06:11:00,
2013-04-27 01:26:00,48.9,45.0,30.21,South,171,9.0,-999.0,87,-99.99,,,0.00,0,weatherlink.com 1.10,2013-04-27 06:26:00,
2013-04-27 01:41:00,48.3,45.0,30.21,SSE,167,10.0,-999.0,88,-99.99,,,0.00,0,weatherlink.com 1.10,2013-04-27 06:41:00,
2013-04-27 01:56:00,48.0,45.0,30.20,SSE,167,8.0,-999.0,89,-99.99,,,0.00,0,weatherlink.com 1.10,2013-04-27 06:56:00,
2013-04-27 02:11:00,47.9,45.0,30.20,SSE,168,8.0,-999.0,89,-99.99,,,0.00,0,weatherlink.com 1.10,2013-04-27 07:11:00,
2013-04-27 02:26:00,47.6,45.0,30.20,South,171,7.0,-999.0,89,-99.99,,,0.00,0,weatherlink.com 1.10,2013-04-27 07:26:00,
2013-04-27 02:41:00,47.1,44.0,30.20,SSE,166,7.0,-999.0,89,-99.99,,,0.00,0,weatherlink.com 1.10,2013-04-27 07:41:00,
2013-04-27 02:56:00,47.0,44.0,30.20,South,175,6.0,-999.0,90,-99.99,,,0.00,0,weatherlink.com 1.10,2013-04-27 07:56:00,
2013-04-27 03:11:00,46.5,44.0,30.20,South,175,9.0,-999.0,90,-99.99,,,0.00,0,weatherlink.com 1.10,2013-04-27 08:11:00,
2013-04-27 03:26:00,47.0,44.0,30.20,South,170,9.0,-999.0,90,-99.99,,,0.00,0,weatherlink.com 1.10,2013-04-27 08:26:00,
2013-04-27 03:41:00,46.2,44.0,30.20,South,174,7.0,-999.0,90,-99.99,,,0.00,0,weatherlink.com 1.10,2013-04-27 08:41:00,
2013-04-27 03:56:00,45.4,43.0,30.19,South,180,9.0,-999.0,90,-99.99,,,0.00,0,weatherlink.com 1.10,2013-04-27 08:56:00,
2013-04-27 04:11:00,46.4,44.0,30.19,South,182,8.0,-999.0,91,-99.99,,,0.00,0,weatherlink.com 1.10,2013-04-27 09:11:00,
2013-04-27 04:26:00,45.1,43.0,30.19,South,173,6.0,-999.0,91,-99.99,,,0.00,0,weatherlink.com 1.10,2013-04-27 09:26:00,
2013-04-27 04:41:00,45.4,43.0,30.19,South,169,4.0,-999.0,92,-99.99,,,0.00,0,weatherlink.com 1.10,2013-04-27 09:41:00,
2013-04-27 04:56:00,44.2,42.0,30.19,South,169,3.0,-999.0,91,-99.99,,,0.00,0,weatherlink.com 1.10,2013-04-27 09:56:00,
2013-04-27 05:11:00,43.6,42.0,30.18,South,169,2.0,-999.0,92,-99.99,,,0.00,0,weatherlink.com 1.10,2013-04-27 10:11:00,
2013-04-27 05:26:00,43.8,42.0,30.18,South,169,0.0,-999.0,92,-99.99,,,0.00,0,weatherlink.com 1.10,2013-04-27 10:26:00,
2013-04-27 05:41:00,43.3,42.0,30.18,South,169,4.0,-999.0,93,-99.99,,,0.00,0,weatherlink.com 1.10,2013-04-27 10:41:00,
2013-04-27 05:56:00,42.2,40.0,30.18,South,169,5.0,-999.0,93,-99.99,,,0.00,0,weatherlink.com 1.10,2013-04-27 10:56:00,
2013-04-27 06:11:00,43.5,42.0,30.18,SSE,167,6.0,-999.0,93,-99.99,,,0.00,12,weatherlink.com 1.10,2013-04-27 11:11:00,
2013-04-27 06:26:00,44.1,43.0,30.19,South,171,5.0,-999.0,94,-99.99,,,0.00,28,weatherlink.com 1.10,2013-04-27 11:26:00,
2013-04-27 06:41:00,45.2,44.0,30.19,South,170,5.0,-999.0,94,-99.99,,,0.00,54,weatherlink.com 1.10,2013-04-27 11:41:00,
2013-04-27 06:56:00,46.1,45.0,30.19,South,170,3.0,-999.0,94,-99.99,,,0.00,91,weatherlink.com 1.10,2013-04-27 11:56:00,
2013-04-27 07:12:00,47.4,46.0,30.18,SSE,161,4.0,-999.0,94,-99.99,,,0.00,47,weatherlink.com 1.10,2013-04-27 12:12:00,
2013-04-27 07:27:00,48.9,47.0,30.18,SSE,168,7.0,-999.0,93,-99.99,,,0.00,188,weatherlink.com 1.10,2013-04-27 12:27:00,
2013-04-27 07:42:00,50.2,48.0,30.18,South,170,11.0,-999.0,91,-99.99,,,0.00,239,weatherlink.com 1.10,2013-04-27 12:42:00,
2013-04-27 07:57:00,51.6,48.0,30.18,South,169,9.0,-999.0,88,-99.99,,,0.00,290,weatherlink.com 1.10,2013-04-27 12:57:00,
2013-04-27 08:12:00,52.5,49.0,30.17,South,173,9.0,-999.0,86,-99.99,,,0.00,339,weatherlink.com 1.10,2013-04-27 13:12:00,
2013-04-27 08:27:00,53.5,49.0,30.17,SSE,163,6.0,-999.0,84,-99.99,,,0.00,392,weatherlink.com 1.10,2013-04-27 13:27:00,
2013-04-27 08:42:00,54.7,49.0,30.17,SSE,156,1.0,-999.0,82,-99.99,,,0.00,445,weatherlink.com 1.10,2013-04-27 13:42:00,
2013-04-27 08:57:00,55.9,48.0,30.16,ESE,121,0.0,-999.0,76,-99.99,,,0.00,506,weatherlink.com 1.10,2013-04-27 13:57:00,
2013-04-27 09:12:00,56.3,48.0,30.16,East,96,3.0,-999.0,74,-99.99,,,0.00,424,weatherlink.com 1.10,2013-04-27 14:12:00,
2013-04-27 09:27:00,56.7,49.0,30.15,SE,139,4.0,-999.0,74,-99.99,,,0.00,563,weatherlink.com 1.10,2013-04-27 14:27:00,
2013-04-27 09:42:00,57.6,49.0,30.15,NE,53,4.0,-999.0,72,-99.99,,,0.00,628,weatherlink.com 1.10,2013-04-27 14:42:00,
2013-04-27 09:57:00,58.6,48.0,30.14,ESE,107,6.0,-999.0,69,-99.99,,,0.00,671,weatherlink.com 1.10,2013-04-27 14:57:00,
2013-04-27 10:12:00,59.6,48.0,30.14,SE,128,7.0,-999.0,65,-99.99,,,0.00,705,weatherlink.com 1.10,2013-04-27 15:12:00,
2013-04-27 10:27:00,59.6,48.0,30.14,East,99,7.0,-999.0,65,-99.99,,,0.00,770,weatherlink.com 1.10,2013-04-27 15:27:00,
2013-04-27 10:42:00,60.5,48.0,30.14,SE,126,6.0,-999.0,63,-99.99,,,0.00,824,weatherlink.com 1.10,2013-04-27 15:42:00,
2013-04-27 10:57:00,60.9,47.0,30.14,SSE,167,10.0,-999.0,60,-99.99,,,0.00,756,weatherlink.com 1.10,2013-04-27 15:57:00,
2013-04-27 11:12:00,61.6,45.0,30.14,SE,130,13.0,-999.0,55,-99.99,,,0.00,830,weatherlink.com 1.10,2013-04-27 16:12:00,
2013-04-27 11:28:00,62.7,46.0,30.14,SE,132,17.0,-999.0,55,-99.99,,,0.00,856,weatherlink.com 1.10,2013-04-27 16:28:00,
2013-04-27 11:43:00,62.6,46.0,30.14,SSE,156,11.0,-999.0,55,-99.99,,,0.00,886,weatherlink.com 1.10,2013-04-27 16:43:00,
2013-04-27 11:58:00,63.4,47.0,30.13,SSE,159,14.0,-999.0,56,-99.99,,,0.00,939,weatherlink.com 1.10,2013-04-27 16:58:00,
2013-04-27 12:13:00,63.5,47.0,30.12,South,169,11.0,-999.0,55,-99.99,,,0.00,930,weatherlink.com 1.10,2013-04-27 17:13:00,
2013-04-27 12:28:00,64.5,47.0,30.12,SE,137,16.0,-999.0,53,-99.99,,,0.00,949,weatherlink.com 1.10,2013-04-27 17:28:00,
2013-04-27 12:43:00,64.0,47.0,30.11,SSE,148,17.0,-999.0,55,-99.99,,,0.00,1041,weatherlink.com 1.10,2013-04-27 17:43:00,
2013-04-27 12:58:00,64.7,46.0,30.11,South,172,13.0,-999.0,52,-99.99,,,0.00,886,weatherlink.com 1.10,2013-04-27 17:58:00,
2013-04-27 13:13:00,63.2,47.0,30.10,SSE,162,17.0,-999.0,55,-99.99,,,0.00,380,weatherlink.com 1.10,2013-04-27 18:13:00,
2013-04-27 13:28:00,64.0,47.0,30.10,SE,139,10.0,-999.0,55,-99.99,,,0.00,1027,weatherlink.com 1.10,2013-04-27 18:28:00,
2013-04-27 13:43:00,63.2,48.0,30.09,SSE,156,13.0,-999.0,58,-99.99,,,0.00,427,weatherlink.com 1.10,2013-04-27 18:43:00,
2013-04-27 13:58:00,63.5,48.0,30.08,SE,146,13.0,-999.0,57,-99.99,,,0.00,462,weatherlink.com 1.10,2013-04-27 18:58:00,
2013-04-27 14:13:00,62.9,47.0,30.08,SE,130,10.0,-999.0,56,-99.99,,,0.00,376,weatherlink.com 1.10,2013-04-27 19:13:00,
2013-04-27 14:28:00,63.5,48.0,30.08,SSE,159,15.0,-999.0,58,-99.99,,,0.00,350,weatherlink.com 1.10,2013-04-27 19:28:00,
2013-04-27 14:43:00,62.3,47.0,30.08,ESE,108,7.0,-999.0,57,-99.99,,,0.00,199,weatherlink.com 1.10,2013-04-27 19:43:00,
2013-04-27 14:58:00,63.2,48.0,30.07,SE,137,10.0,-999.0,57,-99.99,,,0.00,408,weatherlink.com 1.10,2013-04-27 19:58:00,
2013-04-27 15:13:00,63.7,47.0,30.06,ESE,116,5.0,-999.0,55,-99.99,,,0.00,366,weatherlink.com 1.10,2013-04-27 20:13:00,
2013-04-27 15:28:00,63.5,47.0,30.05,East,101,5.0,-999.0,55,-99.99,,,0.00,311,weatherlink.com 1.10,2013-04-27 20:28:00,
2013-04-27 15:43:00,63.5,46.0,30.05,ESE,111,7.0,-999.0,54,-99.99,,,0.00,230,weatherlink.com 1.10,2013-04-27 20:43:00,
2013-04-27 15:58:00,63.7,47.0,30.04,East,98,6.0,-999.0,54,-99.99,,,0.00,225,weatherlink.com 1.10,2013-04-27 20:58:00,
2013-04-27 16:13:00,63.5,46.0,30.03,ESE,112,6.0,-999.0,53,-99.99,,,0.00,230,weatherlink.com 1.10,2013-04-27 21:13:00,
2013-04-27 16:28:00,63.9,46.0,30.03,East,97,6.0,-999.0,52,-99.99,,,0.00,237,weatherlink.com 1.10,2013-04-27 21:28:00,
2013-04-27 16:43:00,63.7,45.0,30.02,East,100,4.0,-999.0,50,-99.99,,,0.00,158,weatherlink.com 1.10,2013-04-27 21:43:00,
2013-04-27 16:58:00,63.5,45.0,30.02,East,93,4.0,-999.0,52,-99.99,,,0.00,118,weatherlink.com 1.10,2013-04-27 21:58:00,
2013-04-27 17:13:00,62.9,46.0,30.02,South,172,6.0,-999.0,54,-99.99,,,0.00,93,weatherlink.com 1.10,2013-04-27 22:13:00,
2013-04-27 17:28:00,62.6,46.0,30.02,SSE,163,9.0,-999.0,54,-99.99,,,0.00,123,weatherlink.com 1.10,2013-04-27 22:28:00,
2013-04-27 17:43:00,62.6,45.0,30.01,SSE,165,4.0,-999.0,53,-99.99,,,0.00,118,weatherlink.com 1.10,2013-04-27 22:43:00,
2013-04-27 17:58:00,62.4,45.0,30.00,SSE,149,5.0,-999.0,53,-99.99,,,0.00,69,weatherlink.com 1.10,2013-04-27 22:58:00,
2013-04-27 18:13:00,62.1,46.0,30.00,SSE,147,3.0,-999.0,55,-99.99,,,0.00,49,weatherlink.com 1.10,2013-04-27 23:13:00,
2013-04-27 18:28:00,62.0,45.0,30.00,SSE,147,4.0,-999.0,54,-99.99,,,0.00,40,weatherlink.com 1.10,2013-04-27 23:28:00,
2013-04-27 18:43:00,62.0,46.0,29.99,SE,146,0.0,-999.0,56,-99.99,,,0.00,37,weatherlink.com 1.10,2013-04-27 23:43:00,
2013-04-27 18:58:00,61.8,45.0,29.99,SSE,147,0.0,-999.0,55,-99.99,,,0.00,51,weatherlink.com 1.10,2013-04-27 23:58:00,
2013-04-27 19:13:00,61.8,46.0,29.98,SSE,147,0.0,-999.0,57,-99.99,,,0.00,51,weatherlink.com 1.10,2013-04-28 00:13:00,
2013-04-27 19:28:00,61.5,46.0,29.98,SE,146,0.0,-999.0,58,-99.99,,,0.00,23,weatherlink.com 1.10,2013-04-28 00:28:00,
2013-04-27 19:43:00,59.0,48.0,29.98,SSW,203,6.0,-999.0,68,-99.99,,,0.00,9,weatherlink.com 1.10,2013-04-28 00:43:00,
2013-04-27 19:58:00,57.5,49.0,29.98,SSW,192,14.0,-999.0,72,-99.99,,,0.00,0,weatherlink.com 1.10,2013-04-28 00:58:00,
2013-04-27 20:13:00,56.7,49.0,29.98,South,189,9.0,-999.0,75,-99.99,,,0.00,0,weatherlink.com 1.10,2013-04-28 01:13:00,
2013-04-27 20:28:00,55.9,49.0,29.98,South,186,9.0,-999.0,77,-99.99,,,0.00,0,weatherlink.com 1.10,2013-04-28 01:28:00,
2013-04-27 20:43:00,55.6,49.0,29.98,South,181,6.0,-999.0,78,-99.99,,,0.00,0,weatherlink.com 1.10,2013-04-28 01:43:00,
2013-04-27 20:58:00,55.0,49.0,29.98,South,186,5.0,-999.0,80,-99.99,,,0.00,0,weatherlink.com 1.10,2013-04-28 01:58:00,
2013-04-27 21:13:00,54.8,49.0,29.98,SSW,196,6.0,-999.0,80,-99.99,,,0.00,0,weatherlink.com 1.10,2013-04-28 02:13:00,
2013-04-27 21:28:00,54.7,49.0,29.97,SSW,196,3.0,-999.0,81,-99.99,,,0.00,0,weatherlink.com 1.10,2013-04-28 02:28:00,
2013-04-27 21:43:00,54.5,49.0,29.97,SSW,196,2.0,-999.0,82,-99.99,,,0.00,0,weatherlink.com 1.10,2013-04-28 02:43:00,
2013-04-27 21:58:00,54.7,49.0,29.96,SSW,196,0.0,-999.0,82,-99.99,,,0.00,0,weatherlink.com 1.10,2013-04-28 02:58:00,
2013-04-27 22:13:00,54.7,49.0,29.96,SSW,198,3.0,-999.0,81,-99.99,,,0.00,0,weatherlink.com 1.10,2013-04-28 03:13:00,
2013-04-27 22:28:00,54.4,49.0,29.96,West,267,5.0,-999.0,82,-99.99,,,0.00,0,weatherlink.com 1.10,2013-04-28 03:28:00,
2013-04-27 22:43:00,54.4,49.0,29.96,West,267,0.0,-999.0,82,-99.99,,,0.00,0,weatherlink.com 1.10,2013-04-28 03:43:00,
2013-04-27 22:58:00,54.4,49.0,29.95,West,267,0.0,-999.0,82,-99.99,,,0.00,0,weatherlink.com 1.10,2013-04-28 03:58:00,
2013-04-27 23:13:00,53.9,49.0,29.95,West,267,0.0,-999.0,83,-99.99,,,0.00,0,weatherlink.com 1.10,2013-04-28 04:13:00,
2013-04-27 23:28:00,53.5,49.0,29.95,West,267,0.0,-999.0,85,-99.99,,,0.00,0,weatherlink.com 1.10,2013-04-28 04:28:00,
2013-04-27 23:43:00,53.6,49.0,29.94,West,267,0.0,-999.0,85,-99.99,,,0.00,0,weatherlink.com 1.10,2013-04-28 04:43:00,
2013-04-27 23:58:00,53.6,49.0,29.94,West,267,0.0,-999.0,85,-99.99,,,0.00,0,weatherlink.com 1.10,2013-04-28 04:58:00,